createdAt,value
2022-08-18T00:04:55.355Z,22.19
2022-08-18T00:10:01.498Z,22.01
2022-08-18T00:15:07.085Z,21.91
2022-08-18T00:20:15.686Z,21.87
2022-08-18T00:25:19.683Z,21.94
2022-08-18T00:30:22.841Z,22.03
2022-08-18T00:35:31.026Z,21.91
2022-08-18T00:40:49.043Z,21.81
2022-08-18T00:45:51.800Z,21.69
2022-08-18T00:50:57.919Z,21.83
2022-08-18T00:56:20.696Z,21.89
2022-08-18T01:01:25.963Z,22.13
2022-08-18T01:06:33.331Z,22.31
2022-08-18T01:11:38.314Z,22.17
2022-08-18T01:16:59.371Z,22.13
2022-08-18T01:22:12.268Z,22.13
2022-08-18T01:27:18.506Z,22.44
2022-08-18T01:32:23.818Z,22.23
2022-08-18T01:37:26.500Z,22.10
2022-08-18T01:42:29.204Z,21.94
2022-08-18T01:47:47.102Z,21.89
2022-08-18T01:52:52.700Z,22.03
2022-08-18T01:57:56.205Z,22.13
2022-08-18T02:03:02.656Z,22.12
2022-08-18T02:08:06.530Z,22.20
2022-08-18T02:13:09.384Z,22.18
2022-08-18T02:18:25.738Z,22.23
2022-08-18T02:23:52.184Z,22.05
2022-08-18T02:28:56.391Z,22.03
2022-08-18T02:33:59.817Z,22.11
2022-08-18T02:39:02.274Z,22.16
2022-08-18T02:44:05.027Z,22.08
2022-08-18T02:49:08.328Z,22.13
2022-08-18T02:54:11.708Z,21.90
2022-08-18T02:59:16.875Z,21.83
2022-08-18T03:04:30.031Z,21.91
2022-08-18T03:09:34.489Z,21.74
2022-08-18T03:14:40.230Z,21.75
2022-08-18T03:19:45.244Z,21.76
2022-08-18T03:24:50.473Z,22.26
2022-08-18T03:29:53.733Z,21.98
2022-08-18T03:34:56.217Z,21.90
2022-08-18T03:39:58.654Z,22.00
2022-08-18T03:45:01.285Z,21.95
2022-08-18T03:50:15.600Z,22.01
2022-08-18T03:55:18.161Z,21.95
2022-08-18T04:00:20.742Z,21.98
2022-08-18T04:05:23.253Z,22.08
2022-08-18T04:10:25.984Z,22.29
2022-08-18T04:15:28.434Z,22.42
2022-08-18T04:20:33.956Z,22.58
2022-08-18T04:25:36.359Z,22.66
2022-08-18T04:30:38.826Z,22.57
2022-08-18T04:35:41.656Z,23.04
2022-08-18T04:40:44.140Z,23.75
2022-08-18T04:45:46.788Z,23.86
2022-08-18T04:50:49.326Z,24.40
2022-08-18T04:55:53.684Z,24.96
2022-08-18T05:01:01.481Z,25.47
2022-08-18T05:06:05.810Z,25.86
2022-08-18T05:11:09.564Z,26.21
2022-08-18T05:16:18.031Z,26.02
2022-08-18T05:21:27.565Z,25.82
2022-08-18T05:31:51.190Z,25.89
2022-08-18T05:37:08.766Z,26.16
2022-08-18T05:42:19.669Z,26.28
2022-08-18T05:47:29.103Z,26.46
2022-08-18T05:52:44.879Z,26.69
2022-08-18T05:57:57.383Z,27.38
2022-08-18T06:03:13.346Z,27.42
2022-08-18T06:08:17.215Z,27.71
2022-08-18T06:13:20.687Z,27.80
2022-08-18T06:18:35.791Z,28.08
2022-08-18T06:23:55.999Z,28.03
2022-08-18T06:29:25.243Z,28.16
2022-08-18T06:34:42.905Z,28.50
2022-08-18T06:39:45.153Z,28.46
2022-08-18T06:44:51.981Z,28.68
2022-08-18T06:50:15.737Z,28.76
2022-08-18T06:55:19.771Z,28.66
2022-08-18T07:00:25.869Z,28.66
2022-08-18T07:05:33.363Z,28.81
2022-08-18T07:10:40.307Z,28.88
2022-08-18T07:15:45.477Z,28.71
2022-08-18T07:20:54.149Z,28.76
2022-08-18T07:26:02.122Z,29.55
2022-08-18T07:31:35.383Z,29.44
2022-08-18T07:36:47.730Z,29.27
2022-08-18T07:41:57.570Z,29.41
2022-08-18T07:47:07.057Z,28.94
2022-08-18T07:52:44.248Z,29.18
2022-08-18T07:57:43.323Z,29.31
2022-08-18T08:03:01.950Z,29.27
2022-08-18T08:08:21.442Z,29.37
2022-08-18T08:13:56.774Z,29.48
2022-08-18T08:19:22.006Z,29.39
2022-08-18T08:24:44.591Z,29.57
2022-08-18T08:29:55.786Z,29.77
2022-08-18T08:35:03.086Z,29.87
2022-08-18T08:40:09.609Z,30.16
2022-08-18T08:45:21.195Z,30.37
2022-08-18T08:50:27.566Z,30.43
2022-08-18T08:55:36.895Z,30.68
2022-08-18T09:06:00.747Z,31.05
2022-08-18T09:11:27.501Z,31.12
2022-08-18T09:17:08.979Z,31.58
2022-08-18T09:22:38.100Z,31.55
2022-08-18T09:28:09.770Z,32.00
2022-08-18T09:33:26.354Z,31.81
2022-08-18T09:38:50.005Z,31.87
2022-08-18T09:44:17.703Z,31.65
2022-08-18T09:49:23.990Z,32.08
2022-08-18T09:54:31.727Z,31.74
2022-08-18T09:59:35.095Z,32.06
2022-08-18T10:04:51.466Z,32.10
2022-08-18T10:10:59.444Z,31.95
2022-08-18T10:15:35.596Z,31.88
2022-08-18T10:20:41.331Z,32.28
2022-08-18T10:25:48.808Z,32.51
2022-08-18T10:31:06.306Z,32.58
2022-08-18T10:36:51.016Z,32.59
2022-08-18T10:42:06.279Z,32.43
2022-08-18T10:47:12.080Z,32.43
2022-08-18T10:52:47.253Z,32.87
2022-08-18T10:58:28.031Z,32.38
2022-08-18T11:03:51.604Z,32.69
2022-08-18T11:09:00.574Z,32.52
2022-08-18T11:14:13.979Z,32.45
2022-08-18T11:19:18.057Z,32.79
2022-08-18T11:24:31.694Z,32.56
2022-08-18T11:29:35.387Z,32.44
2022-08-18T11:34:51.886Z,32.97
2022-08-18T11:39:58.134Z,32.77
2022-08-18T11:45:24.888Z,32.54
2022-08-18T11:50:30.840Z,32.71
2022-08-18T11:55:34.506Z,33.13
2022-08-18T12:01:03.788Z,33.12
2022-08-18T12:06:19.086Z,33.25
2022-08-18T12:11:31.411Z,32.93
2022-08-18T12:16:37.543Z,33.09
2022-08-18T12:21:45.130Z,33.26
2022-08-18T12:26:48.647Z,33.26
2022-08-18T12:31:55.886Z,33.71
2022-08-18T12:37:01.285Z,33.88
2022-08-18T12:42:03.695Z,34.00
2022-08-18T12:47:14.304Z,33.97
2022-08-18T12:52:17.289Z,33.82
2022-08-18T12:57:51.682Z,34.33
2022-08-18T13:02:49.364Z,34.25
2022-08-18T13:07:52.390Z,34.17
2022-08-18T13:12:55.163Z,33.84
2022-08-18T13:17:59.232Z,33.92
2022-08-18T13:23:01.711Z,34.61
2022-08-18T13:28:04.403Z,34.63
2022-08-18T13:33:57.121Z,34.39
2022-08-18T13:38:30.221Z,34.25
2022-08-18T13:43:37.812Z,34.27
2022-08-18T13:48:42.105Z,34.69
2022-08-18T13:53:57.623Z,34.38
2022-08-18T13:59:01.727Z,34.23
2022-08-18T14:04:12.719Z,34.34
2022-08-18T14:09:20.023Z,34.40
2022-08-18T14:14:38.036Z,34.40
2022-08-18T14:19:59.408Z,34.41
2022-08-18T14:25:22.870Z,34.41
2022-08-18T14:30:25.607Z,34.32
2022-08-18T14:35:33.818Z,34.39
2022-08-18T14:40:45.635Z,34.35
2022-08-18T14:45:49.181Z,34.38
2022-08-18T14:50:54.778Z,34.19
2022-08-18T14:55:59.890Z,34.21
2022-08-18T15:01:08.289Z,34.13
2022-08-18T15:06:16.875Z,34.09
2022-08-18T15:11:19.599Z,34.05
2022-08-18T15:16:31.646Z,34.11
2022-08-18T15:21:56.440Z,34.26
2022-08-18T15:27:05.523Z,33.61
2022-08-18T15:32:10.577Z,34.03
2022-08-18T15:37:13.118Z,33.62
2022-08-18T15:42:15.656Z,33.58
2022-08-18T15:47:20.983Z,33.70
2022-08-18T15:52:27.675Z,33.54
2022-08-18T15:57:39.851Z,33.41
2022-08-18T16:02:44.507Z,33.38
2022-08-18T16:07:51.854Z,33.33
2022-08-18T16:12:55.171Z,33.52
2022-08-18T16:17:57.600Z,33.26
2022-08-18T16:23:00.830Z,33.15
2022-08-18T16:28:03.535Z,32.75
2022-08-18T16:33:07.214Z,32.69
2022-08-18T16:38:11.140Z,32.54
2022-08-18T16:43:14.969Z,32.46
2022-08-18T16:48:17.548Z,32.36
2022-08-18T16:53:20.022Z,32.32
2022-08-18T16:58:40.849Z,32.03
2022-08-18T17:04:02.012Z,31.69
2022-08-18T17:09:10.160Z,31.33
2022-08-18T17:14:12.827Z,31.17
2022-08-18T17:19:15.306Z,30.76
2022-08-18T17:24:18.539Z,30.44
2022-08-18T17:29:44.170Z,30.43
2022-08-18T17:34:51.776Z,30.18
2022-08-18T17:40:10.240Z,29.96
2022-08-18T17:45:22.017Z,29.77
2022-08-18T17:50:47.926Z,29.53
2022-08-18T17:55:53.434Z,29.20
2022-08-18T18:00:55.903Z,29.07
2022-08-18T18:06:05.687Z,28.95
2022-08-18T18:11:12.050Z,28.43
2022-08-18T18:16:22.097Z,27.98
2022-08-18T18:22:00.720Z,27.70
2022-08-18T18:26:49.213Z,27.65
2022-08-18T18:32:00.945Z,27.65
2022-08-18T18:37:03.563Z,27.53
2022-08-18T18:42:17.659Z,27.37
2022-08-18T18:47:32.352Z,27.35
2022-08-18T18:52:56.557Z,27.18
2022-08-18T18:58:17.551Z,27.09
2022-08-18T19:03:27.862Z,27.07
2022-08-18T19:08:36.226Z,26.98
2022-08-18T19:13:43.170Z,26.91
2022-08-18T19:19:35.398Z,26.77
2022-08-18T19:24:22.346Z,26.65
2022-08-18T19:29:30.005Z,26.63
2022-08-18T19:34:37.636Z,26.50
2022-08-18T19:40:01.379Z,26.44
2022-08-18T19:45:42.271Z,26.37
2022-08-18T19:50:50.748Z,26.27
2022-08-18T19:56:04.987Z,26.20
2022-08-18T20:01:21.050Z,26.03
2022-08-18T20:06:48.375Z,26.01
2022-08-18T20:12:23.206Z,25.95
2022-08-18T20:17:27.115Z,25.88
2022-08-18T20:22:39.838Z,25.96
2022-08-18T20:27:44.924Z,25.61
2022-08-18T20:33:07.151Z,25.46
2022-08-18T20:38:15.615Z,25.34
2022-08-18T20:43:32.987Z,25.41
2022-08-18T20:48:38.010Z,25.38
2022-08-18T20:53:53.167Z,25.33
2022-08-18T20:59:08.683Z,25.28
2022-08-18T21:04:11.720Z,25.32
2022-08-18T21:09:18.738Z,25.23
2022-08-18T21:14:29.780Z,25.22
2022-08-18T21:19:41.346Z,25.09
2022-08-18T21:24:49.913Z,25.03
2022-08-18T21:29:53.530Z,25.17
2022-08-18T21:34:56.267Z,25.19
2022-08-18T21:40:01.008Z,25.16
2022-08-18T21:45:03.533Z,25.13
2022-08-18T21:50:18.167Z,25.12
2022-08-18T21:55:26.792Z,24.95
2022-08-18T22:00:34.089Z,24.78
2022-08-18T22:05:58.849Z,24.79
2022-08-18T22:12:01.279Z,24.81
2022-08-18T22:17:19.585Z,25.03
2022-08-18T22:22:41.860Z,24.79
2022-08-18T22:27:49.779Z,24.84
2022-08-18T22:32:52.686Z,24.78
2022-08-18T22:37:55.262Z,24.76
2022-08-18T22:42:58.427Z,24.67
2022-08-18T22:48:01.354Z,24.67
2022-08-18T22:53:03.991Z,24.62
2022-08-18T22:58:06.399Z,24.57
2022-08-18T23:03:11.837Z,24.52
2022-08-18T23:08:14.534Z,24.62
2022-08-18T23:13:18.101Z,24.65
2022-08-18T23:18:22.484Z,24.60
2022-08-18T23:23:26.195Z,24.43
2022-08-18T23:28:29.019Z,24.35
2022-08-18T23:33:32.470Z,24.38
2022-08-18T23:38:38.365Z,24.28
2022-08-18T23:43:42.244Z,24.17
2022-08-18T23:48:49.705Z,24.20
2022-08-18T23:53:54.275Z,24.14
2022-08-18T23:58:57.412Z,23.94
